createdAt,value
2022-10-19T00:01:10.339Z,7.90
2022-10-19T00:05:13.133Z,7.90
2022-10-19T00:09:22.574Z,7.80
2022-10-19T00:13:25.369Z,7.80
2022-10-19T00:17:28.271Z,7.80
2022-10-19T00:21:31.468Z,7.70
2022-10-19T00:25:36.885Z,7.70
2022-10-19T00:29:39.840Z,7.70
2022-10-19T00:33:43.133Z,7.70
2022-10-19T00:37:45.991Z,7.60
2022-10-19T00:41:50.344Z,7.60
2022-10-19T00:45:53.599Z,7.60
2022-10-19T00:49:59.939Z,7.60
2022-10-19T00:54:04.625Z,7.60
2022-10-19T00:58:11.733Z,7.60
2022-10-19T01:02:14.793Z,7.60
2022-10-19T01:06:19.512Z,7.60
2022-10-19T01:10:30.548Z,7.60
2022-10-19T01:14:48.302Z,7.60
2022-10-19T01:18:59.181Z,7.70
2022-10-19T01:23:34.866Z,7.80
2022-10-19T01:27:52.186Z,7.80
2022-10-19T01:32:04.756Z,7.90
2022-10-19T01:36:19.541Z,7.90
2022-10-19T01:40:29.095Z,8.10
2022-10-19T01:44:40.792Z,8.20
2022-10-19T01:48:52.317Z,8.20
2022-10-19T01:52:57.699Z,8.20
2022-10-19T01:57:03.380Z,8.10
2022-10-19T02:05:18.005Z,8.10
2022-10-19T02:09:21.183Z,8.00
2022-10-19T02:13:25.598Z,8.00
2022-10-19T02:17:32.645Z,8.00
2022-10-19T02:21:36.928Z,7.90
2022-10-19T02:25:39.807Z,7.90
2022-10-19T02:29:42.831Z,7.80
2022-10-19T02:33:45.714Z,7.80
2022-10-19T02:37:50.095Z,7.80
2022-10-19T02:41:57.026Z,7.70
2022-10-19T02:46:04.801Z,7.70
2022-10-19T02:50:09.400Z,7.70
2022-10-19T02:54:13.534Z,7.80
2022-10-19T02:58:16.397Z,7.80
2022-10-19T03:02:20.619Z,7.80
2022-10-19T03:06:23.406Z,7.80
2022-10-19T03:10:27.546Z,7.80
2022-10-19T03:14:30.334Z,7.70
2022-10-19T03:18:33.159Z,7.70
2022-10-19T03:22:35.959Z,7.60
2022-10-19T03:26:40.091Z,7.50
2022-10-19T03:30:42.893Z,7.50
2022-10-19T03:34:45.705Z,7.40
2022-10-19T03:38:50.413Z,7.40
2022-10-19T03:42:54.642Z,7.30
2022-10-19T03:46:57.450Z,7.30
2022-10-19T03:51:00.912Z,7.40
2022-10-19T03:55:03.743Z,7.30
2022-10-19T03:59:08.637Z,7.30
2022-10-19T04:03:11.427Z,7.20
2022-10-19T04:07:14.239Z,7.20
2022-10-19T04:11:18.989Z,7.10
2022-10-19T04:15:23.126Z,7.10
2022-10-19T04:19:25.934Z,7.10
2022-10-19T04:23:30.317Z,7.10
2022-10-19T04:27:33.578Z,7.10
2022-10-19T04:31:38.289Z,7.10
2022-10-19T04:35:41.107Z,7.20
2022-10-19T04:39:44.571Z,7.30
2022-10-19T04:43:48.481Z,7.30
2022-10-19T04:47:54.177Z,7.40
2022-10-19T04:51:57.066Z,7.40
2022-10-19T04:55:59.941Z,7.50
2022-10-19T05:00:03.719Z,7.60
2022-10-19T05:04:08.070Z,7.60
2022-10-19T05:08:11.594Z,7.70
2022-10-19T05:12:14.422Z,7.70
2022-10-19T05:16:19.452Z,7.70
2022-10-19T05:20:23.771Z,7.80
2022-10-19T05:24:26.581Z,7.80
2022-10-19T05:28:29.743Z,7.80
2022-10-19T05:32:32.785Z,7.90
2022-10-19T05:36:38.558Z,7.90
2022-10-19T05:40:49.189Z,8.00
2022-10-19T05:44:55.642Z,8.00
2022-10-19T05:49:00.865Z,8.00
2022-10-19T05:53:05.787Z,8.10
2022-10-19T05:57:08.602Z,8.10
2022-10-19T06:01:12.254Z,8.20
2022-10-19T06:05:15.189Z,8.20
2022-10-19T06:09:19.321Z,8.30
2022-10-19T06:13:22.182Z,8.40
2022-10-19T06:17:25.079Z,8.50
2022-10-19T06:21:29.753Z,8.60
2022-10-19T06:25:34.961Z,8.60
2022-10-19T06:29:37.922Z,8.70
2022-10-19T06:33:41.424Z,8.70
2022-10-19T06:37:44.405Z,8.80
2022-10-19T06:41:48.561Z,8.90
2022-10-19T06:45:54.594Z,9.00
2022-10-19T06:49:57.403Z,9.10
2022-10-19T06:54:00.256Z,9.10
2022-10-19T06:58:04.846Z,9.20
2022-10-19T07:02:07.901Z,9.20
2022-10-19T07:06:13.145Z,9.30
2022-10-19T07:10:16.145Z,9.40
2022-10-19T07:14:20.322Z,9.40
2022-10-19T07:18:23.129Z,9.50
2022-10-19T07:22:28.295Z,9.60
2022-10-19T07:26:33.097Z,9.70
2022-10-19T07:30:39.010Z,9.70
2022-10-19T07:34:41.809Z,9.90
2022-10-19T07:38:44.597Z,10.00
2022-10-19T07:42:47.385Z,10.10
2022-10-19T07:46:51.795Z,10.20
2022-10-19T07:50:54.681Z,10.40
2022-10-19T07:54:57.539Z,10.70
2022-10-19T07:59:01.638Z,10.90
2022-10-19T08:07:28.673Z,11.30
2022-10-19T08:11:33.342Z,11.50
2022-10-19T08:15:36.134Z,11.60
2022-10-19T08:19:43.341Z,11.80
2022-10-19T08:23:46.469Z,11.80
2022-10-19T08:27:49.345Z,11.90
2022-10-19T08:31:52.967Z,12.10
2022-10-19T08:35:57.107Z,12.20
2022-10-19T08:39:59.914Z,12.30
2022-10-19T08:44:29.513Z,12.40
2022-10-19T08:48:36.589Z,12.50
2022-10-19T08:52:41.300Z,12.60
2022-10-19T08:56:51.461Z,12.80
2022-10-19T09:01:01.397Z,12.80
2022-10-19T09:05:10.960Z,12.80
2022-10-19T09:09:15.741Z,12.80
2022-10-19T09:13:36.466Z,12.80
2022-10-19T09:17:50.048Z,12.90
2022-10-19T09:21:57.411Z,12.90
2022-10-19T09:26:01.543Z,13.00
2022-10-19T09:30:08.232Z,13.00
2022-10-19T09:34:17.853Z,13.10
2022-10-19T09:38:24.161Z,13.20
2022-10-19T09:42:30.335Z,13.20
2022-10-19T09:46:48.367Z,13.10
2022-10-19T09:50:57.262Z,13.00
2022-10-19T09:55:02.750Z,13.00
2022-10-19T09:59:23.139Z,13.10
2022-10-19T10:03:29.915Z,13.10
2022-10-19T10:07:37.288Z,13.20
2022-10-19T10:11:41.196Z,13.20
2022-10-19T10:15:49.100Z,13.20
2022-10-19T10:20:03.883Z,13.20
2022-10-19T10:24:17.341Z,13.30
2022-10-19T10:28:22.496Z,13.40
2022-10-19T10:32:28.561Z,13.40
2022-10-19T10:36:32.882Z,13.50
2022-10-19T10:40:36.042Z,13.50
2022-10-19T10:44:39.177Z,13.50
2022-10-19T10:48:47.708Z,13.40
2022-10-19T10:53:01.105Z,13.50
2022-10-19T10:57:16.629Z,13.60
2022-10-19T11:01:23.053Z,13.50
2022-10-19T11:05:32.100Z,13.30
2022-10-19T11:09:43.399Z,13.30
2022-10-19T11:13:52.608Z,13.20
2022-10-19T11:18:04.751Z,13.20
2022-10-19T11:22:22.486Z,13.20
2022-10-19T11:26:40.798Z,13.30
2022-10-19T11:30:57.706Z,13.20
2022-10-19T11:35:17.051Z,13.30
2022-10-19T11:39:36.317Z,13.40
2022-10-19T11:43:45.218Z,13.40
2022-10-19T11:48:00.390Z,13.50
2022-10-19T11:52:13.097Z,13.60
2022-10-19T11:56:34.765Z,13.60
2022-10-19T12:00:47.543Z,13.70
2022-10-19T12:04:55.406Z,13.70
2022-10-19T12:09:11.551Z,13.70
2022-10-19T12:13:19.621Z,13.70
2022-10-19T12:17:27.418Z,13.80
2022-10-19T12:21:35.162Z,13.80
2022-10-19T12:25:41.189Z,13.70
2022-10-19T12:29:48.397Z,13.80
2022-10-19T12:33:57.856Z,14.00
2022-10-19T12:38:07.657Z,13.90
2022-10-19T12:42:20.249Z,13.80
2022-10-19T12:46:34.899Z,13.90
2022-10-19T12:51:01.208Z,13.90
2022-10-19T12:55:28.206Z,13.90
2022-10-19T12:59:33.571Z,13.80
2022-10-19T13:03:40.491Z,13.70
2022-10-19T13:07:43.579Z,13.80
2022-10-19T13:12:21.892Z,13.80
2022-10-19T13:16:58.168Z,13.80
2022-10-19T13:21:03.610Z,13.90
2022-10-19T13:25:30.465Z,13.70
2022-10-19T13:29:43.107Z,13.70
2022-10-19T13:33:51.678Z,13.60
2022-10-19T13:38:26.234Z,13.60
2022-10-19T13:42:31.498Z,13.60
2022-10-19T13:46:54.036Z,13.70
2022-10-19T13:51:07.251Z,13.70
2022-10-19T13:55:42.168Z,13.70
2022-10-19T14:00:04.984Z,13.60
2022-10-19T14:04:37.382Z,13.70
2022-10-19T14:09:12.697Z,13.70
2022-10-19T14:13:18.126Z,13.70
2022-10-19T14:17:24.477Z,13.50
2022-10-19T14:21:32.126Z,13.40
2022-10-19T14:25:34.976Z,13.50
2022-10-19T14:29:46.099Z,13.40
2022-10-19T14:33:52.316Z,13.40
2022-10-19T14:37:55.638Z,13.40
2022-10-19T14:42:01.608Z,13.40
2022-10-19T14:46:16.522Z,13.30
2022-10-19T14:50:20.682Z,13.30
2022-10-19T14:54:30.117Z,13.20
2022-10-19T14:58:40.282Z,13.10
2022-10-19T15:02:48.005Z,13.10
2022-10-19T15:06:51.158Z,13.00
2022-10-19T15:10:54.559Z,13.00
2022-10-19T15:14:58.382Z,13.00
2022-10-19T15:19:06.311Z,12.90
2022-10-19T15:23:33.505Z,12.80
2022-10-19T15:27:38.611Z,12.80
2022-10-19T15:31:43.541Z,12.70
2022-10-19T15:35:49.303Z,12.60
2022-10-19T15:39:52.991Z,12.60
2022-10-19T15:44:01.131Z,12.50
2022-10-19T15:48:29.049Z,12.40
2022-10-19T15:52:34.387Z,12.30
2022-10-19T15:56:38.900Z,12.20
2022-10-19T16:00:42.883Z,12.10
2022-10-19T16:04:45.735Z,12.00
2022-10-19T16:08:51.078Z,11.90
2022-10-19T16:12:54.412Z,11.80
2022-10-19T16:17:00.391Z,11.70
2022-10-19T16:21:03.818Z,11.60
2022-10-19T16:25:08.599Z,11.50
2022-10-19T16:29:11.492Z,11.40
2022-10-19T16:33:14.359Z,11.40
2022-10-19T16:43:06.619Z,11.10
2022-10-19T16:47:09.460Z,11.00
2022-10-19T16:51:26.005Z,10.90
2022-10-19T16:55:29.846Z,10.90
2022-10-19T16:59:34.052Z,10.80
2022-10-19T17:03:36.967Z,10.70
2022-10-19T17:07:39.811Z,10.70
2022-10-19T17:11:42.659Z,10.50
2022-10-19T17:15:47.269Z,10.50
2022-10-19T17:19:50.205Z,10.50
2022-10-19T17:23:54.032Z,10.40
2022-10-19T17:27:56.830Z,10.30
2022-10-19T17:32:01.202Z,10.30
2022-10-19T17:36:06.392Z,10.20
2022-10-19T17:40:10.527Z,10.10
2022-10-19T17:44:16.407Z,10.00
2022-10-19T17:48:21.270Z,10.00
2022-10-19T17:52:24.121Z,9.90
2022-10-19T17:56:27.763Z,9.90
2022-10-19T18:00:30.652Z,9.90
2022-10-19T18:08:41.453Z,9.90
2022-10-19T18:12:45.149Z,9.80
2022-10-19T18:16:48.999Z,9.80
2022-10-19T18:20:53.250Z,9.80
2022-10-19T18:24:56.153Z,9.80
2022-10-19T18:29:03.074Z,9.80
2022-10-19T18:33:06.915Z,9.90
2022-10-19T18:37:11.172Z,9.90
2022-10-19T18:45:21.756Z,10.00
2022-10-19T18:49:25.205Z,10.00
2022-10-19T18:53:30.789Z,10.00
2022-10-19T18:57:35.129Z,10.00
2022-10-19T19:01:39.390Z,9.90
2022-10-19T19:05:42.873Z,9.90
2022-10-19T19:09:47.089Z,9.90
2022-10-19T19:13:52.037Z,9.80
2022-10-19T19:17:55.611Z,9.80
2022-10-19T19:21:58.553Z,9.70
2022-10-19T19:26:04.354Z,9.60
2022-10-19T19:30:08.160Z,9.60
2022-10-19T19:34:11.025Z,9.60
2022-10-19T19:38:15.171Z,9.50
2022-10-19T19:42:19.360Z,9.50
2022-10-19T19:46:22.522Z,9.40
2022-10-19T19:50:28.503Z,9.30
2022-10-19T19:54:31.701Z,9.30
2022-10-19T19:58:36.249Z,9.30
2022-10-19T20:02:39.381Z,9.20
2022-10-19T20:06:44.415Z,9.20
2022-10-19T20:10:47.269Z,9.10
2022-10-19T20:14:51.465Z,9.10
2022-10-19T20:18:59.913Z,9.10
2022-10-19T20:23:02.700Z,9.00
2022-10-19T20:27:05.548Z,9.00
2022-10-19T20:31:10.617Z,9.00
2022-10-19T20:35:13.775Z,9.00
2022-10-19T20:39:16.763Z,8.90
2022-10-19T20:43:19.567Z,8.90
2022-10-19T20:47:23.780Z,8.90
2022-10-19T20:51:30.991Z,8.90
2022-10-19T20:55:34.982Z,8.90
2022-10-19T20:59:38.739Z,8.90
2022-10-19T21:03:46.874Z,8.90
2022-10-19T21:07:50.034Z,8.80
2022-10-19T21:11:53.239Z,8.80
2022-10-19T21:15:56.098Z,8.80
2022-10-19T21:20:00.331Z,8.80
2022-10-19T21:24:05.999Z,8.80
2022-10-19T21:28:08.807Z,8.70
2022-10-19T21:32:11.632Z,8.70
2022-10-19T21:36:16.548Z,8.70
2022-10-19T21:40:19.402Z,8.70
2022-10-19T21:44:23.075Z,8.60
2022-10-19T21:48:26.055Z,8.60
2022-10-19T21:52:30.262Z,8.40
2022-10-19T21:56:34.107Z,8.40
2022-10-19T22:00:37.257Z,8.30
2022-10-19T22:04:40.175Z,8.40
2022-10-19T22:08:47.607Z,8.30
2022-10-19T22:12:50.614Z,8.30
2022-10-19T22:16:53.490Z,8.20
2022-10-19T22:20:56.367Z,8.30
2022-10-19T22:25:00.669Z,8.40
2022-10-19T22:29:05.116Z,8.40
2022-10-19T22:33:08.192Z,8.40
2022-10-19T22:37:11.426Z,8.50
2022-10-19T22:41:15.670Z,8.50
2022-10-19T22:45:18.728Z,8.50
2022-10-19T22:49:21.777Z,8.50
2022-10-19T22:53:25.476Z,8.40
2022-10-19T22:57:29.650Z,8.40
2022-10-19T23:01:33.487Z,8.40
2022-10-19T23:05:37.145Z,8.30
2022-10-19T23:09:40.147Z,8.30
2022-10-19T23:13:44.392Z,8.30
2022-10-19T23:17:47.240Z,8.40
2022-10-19T23:21:50.119Z,8.40
2022-10-19T23:26:01.394Z,8.30
2022-10-19T23:30:06.362Z,8.30
2022-10-19T23:34:09.174Z,8.30
2022-10-19T23:38:11.998Z,8.30
2022-10-19T23:42:14.831Z,8.30
2022-10-19T23:46:19.134Z,8.30
2022-10-19T23:50:21.939Z,8.30
2022-10-19T23:54:24.971Z,8.20
2022-10-19T23:58:28.351Z,8.30
